createdAt,value
2023-01-08T00:00:13.495Z,6.90
2023-01-08T00:02:46.403Z,7.10
2023-01-08T00:05:18.330Z,7.30
2023-01-08T00:07:51.065Z,7.30
2023-01-08T00:10:22.981Z,7.30
2023-01-08T00:12:58.944Z,7.30
2023-01-08T00:15:30.940Z,7.20
2023-01-08T00:18:06.776Z,6.90
2023-01-08T00:20:43.409Z,6.70
2023-01-08T00:23:18.887Z,6.60
2023-01-08T00:25:51.655Z,6.70
2023-01-08T00:30:56.790Z,7.20
2023-01-08T00:33:28.734Z,7.50
2023-01-08T00:36:01.956Z,7.50
2023-01-08T00:38:33.847Z,7.50
2023-01-08T00:41:06.891Z,7.60
2023-01-08T00:43:39.118Z,7.50
2023-01-08T00:46:11.986Z,7.40
2023-01-08T00:48:44.011Z,7.50
2023-01-08T00:51:16.724Z,7.30
2023-01-08T00:53:48.655Z,7.40
2023-01-08T00:56:20.617Z,7.60
2023-01-08T00:58:53.376Z,7.60
2023-01-08T01:01:25.495Z,7.60
2023-01-08T01:03:58.386Z,7.50
2023-01-08T01:09:03.576Z,7.50
2023-01-08T01:11:35.788Z,7.80
2023-01-08T01:14:09.927Z,7.90
2023-01-08T01:19:17.257Z,7.80
2023-01-08T01:24:25.419Z,7.80
2023-01-08T01:26:57.615Z,7.90
2023-01-08T01:29:30.429Z,7.90
2023-01-08T01:32:02.964Z,7.90
2023-01-08T01:34:35.959Z,7.90
2023-01-08T01:37:08.339Z,7.80
2023-01-08T01:39:43.844Z,7.80
2023-01-08T01:42:36.682Z,7.70
2023-01-08T01:45:21.946Z,7.50
2023-01-08T01:48:11.173Z,7.50
2023-01-08T01:50:50.414Z,7.50
2023-01-08T01:53:29.139Z,7.50
2023-01-08T01:56:03.536Z,7.60
2023-01-08T01:58:36.845Z,7.60
2023-01-08T02:01:11.423Z,7.50
2023-01-08T02:03:44.054Z,7.50
2023-01-08T02:06:40.536Z,7.50
2023-01-08T02:09:48.586Z,7.50
2023-01-08T02:12:44.943Z,7.60
2023-01-08T02:15:37.939Z,7.60
2023-01-08T02:18:21.317Z,7.70
2023-01-08T02:21:09.794Z,8.00
2023-01-08T02:24:02.661Z,8.20
2023-01-08T02:26:37.175Z,8.30
2023-01-08T02:29:21.472Z,8.10
2023-01-08T02:31:53.347Z,8.10
2023-01-08T02:36:59.030Z,8.40
2023-01-08T02:40:07.579Z,8.60
2023-01-08T02:43:20.420Z,8.70
2023-01-08T02:45:57.999Z,8.40
2023-01-08T02:48:42.871Z,8.70
2023-01-08T02:51:31.744Z,8.60
2023-01-08T02:54:09.674Z,8.60
2023-01-08T02:56:49.736Z,8.70
2023-01-08T02:59:23.240Z,8.90
2023-01-08T03:01:56.677Z,8.60
2023-01-08T03:04:31.726Z,8.80
2023-01-08T03:07:04.485Z,8.70
2023-01-08T03:09:37.171Z,9.00
2023-01-08T03:12:20.289Z,9.00
2023-01-08T03:15:04.722Z,9.60
2023-01-08T03:17:44.246Z,9.70
2023-01-08T03:20:21.985Z,10.30
2023-01-08T03:22:57.614Z,10.50
2023-01-08T03:25:30.573Z,10.70
2023-01-08T03:28:09.199Z,10.70
2023-01-08T03:30:42.386Z,11.00
2023-01-08T03:33:17.248Z,10.80
2023-01-08T03:35:54.117Z,10.60
2023-01-08T03:38:32.728Z,10.50
2023-01-08T03:41:11.390Z,10.50
2023-01-08T03:43:43.264Z,10.30
2023-01-08T03:46:30.951Z,10.20
2023-01-08T03:49:05.681Z,10.10
2023-01-08T03:51:47.322Z,10.00
2023-01-08T03:57:16.771Z,9.70
2023-01-08T04:04:55.183Z,9.50
2023-01-08T04:10:00.104Z,9.30
2023-01-08T04:15:20.325Z,9.10
2023-01-08T04:17:54.352Z,9.10
2023-01-08T04:20:26.268Z,9.10
2023-01-08T04:22:59.298Z,9.10
2023-01-08T04:25:31.187Z,9.10
2023-01-08T04:28:04.294Z,9.10
2023-01-08T04:30:37.293Z,9.10
2023-01-08T04:33:09.990Z,9.10
2023-01-08T04:35:41.816Z,9.10
2023-01-08T04:38:14.646Z,8.90
2023-01-08T04:40:47.076Z,9.20
2023-01-08T04:51:03.451Z,8.90
2023-01-08T04:53:38.188Z,8.70
2023-01-08T04:56:11.440Z,8.60
2023-01-08T04:58:44.368Z,8.60
2023-01-08T05:01:23.625Z,8.60
2023-01-08T05:03:59.599Z,8.60
2023-01-08T05:06:38.541Z,8.80
2023-01-08T05:09:11.748Z,8.90
2023-01-08T05:14:17.262Z,8.70
2023-01-08T05:16:49.105Z,8.70
2023-01-08T05:19:21.769Z,8.70
2023-01-08T05:21:53.679Z,8.70
2023-01-08T05:24:26.390Z,8.90
2023-01-08T05:26:58.698Z,8.90
2023-01-08T05:32:04.038Z,9.00
2023-01-08T05:37:11.314Z,9.30
2023-01-08T05:39:44.282Z,9.50
2023-01-08T05:42:17.001Z,9.50
2023-01-08T05:44:49.397Z,9.60
2023-01-08T05:47:21.270Z,9.60
2023-01-08T05:49:54.492Z,9.60
2023-01-08T05:52:27.374Z,9.70
2023-01-08T05:55:00.517Z,9.70
2023-01-08T05:57:32.413Z,9.90
2023-01-08T06:00:08.613Z,10.00
2023-01-08T06:02:48.117Z,10.00
2023-01-08T06:05:20.896Z,10.30
2023-01-08T06:07:52.789Z,10.20
2023-01-08T06:10:25.565Z,10.20
2023-01-08T06:15:29.979Z,10.30
2023-01-08T06:18:03.928Z,10.30
2023-01-08T06:20:35.851Z,10.40
2023-01-08T06:23:09.905Z,10.60
2023-01-08T06:25:42.193Z,10.70
2023-01-08T06:28:14.053Z,10.60
2023-01-08T06:33:21.619Z,10.60
2023-01-08T06:35:54.434Z,10.70
2023-01-08T06:38:26.682Z,10.70
2023-01-08T06:40:59.061Z,10.60
2023-01-08T06:43:31.546Z,10.50
2023-01-08T06:46:08.609Z,10.40
2023-01-08T06:48:41.405Z,10.30
2023-01-08T06:51:13.259Z,10.20
2023-01-08T06:53:49.340Z,10.20
2023-01-08T06:56:21.176Z,10.10
2023-01-08T06:58:53.888Z,10.10
2023-01-08T07:01:25.871Z,10.10
2023-01-08T07:03:58.585Z,10.00
2023-01-08T07:06:31.095Z,10.10
2023-01-08T07:09:03.367Z,10.00
2023-01-08T07:11:35.258Z,9.90
2023-01-08T07:14:07.633Z,10.10
2023-01-08T07:16:39.514Z,10.30
2023-01-08T07:19:12.196Z,10.30
2023-01-08T07:21:44.543Z,10.40
2023-01-08T07:24:16.401Z,10.30
2023-01-08T07:26:49.089Z,10.20
2023-01-08T07:29:20.977Z,10.20
2023-01-08T07:31:53.736Z,10.20
2023-01-08T07:36:58.688Z,10.30
2023-01-08T07:39:32.144Z,10.20
2023-01-08T07:42:05.345Z,10.10
2023-01-08T07:44:37.289Z,10.10
2023-01-08T07:47:09.583Z,10.20
2023-01-08T07:49:41.416Z,10.20
2023-01-08T07:52:14.093Z,10.30
2023-01-08T07:57:18.996Z,10.40
2023-01-08T07:59:51.265Z,10.30
2023-01-08T08:02:23.291Z,10.40
2023-01-08T08:04:56.104Z,10.50
2023-01-08T08:07:31.285Z,10.40
2023-01-08T08:10:05.711Z,10.40
2023-01-08T08:12:38.229Z,10.50
2023-01-08T08:15:10.524Z,10.70
2023-01-08T08:17:47.995Z,10.60
2023-01-08T08:20:19.890Z,10.70
2023-01-08T08:22:52.977Z,10.70
2023-01-08T08:28:00.043Z,10.80
2023-01-08T08:30:34.504Z,10.80
2023-01-08T08:33:07.876Z,10.80
2023-01-08T08:35:40.352Z,10.70
2023-01-08T08:38:13.089Z,10.70
2023-01-08T08:40:45.379Z,10.70
2023-01-08T08:43:17.846Z,10.60
2023-01-08T08:48:23.656Z,10.60
2023-01-08T08:50:56.953Z,10.60
2023-01-08T08:53:28.826Z,10.50
2023-01-08T09:01:08.060Z,10.40
2023-01-08T09:06:14.523Z,10.30
2023-01-08T09:08:46.935Z,10.20
2023-01-08T09:11:18.816Z,10.20
2023-01-08T09:16:23.996Z,10.20
2023-01-08T09:18:57.403Z,10.10
2023-01-08T09:21:29.403Z,10.00
2023-01-08T09:24:02.416Z,10.00
2023-01-08T09:26:34.804Z,10.00
2023-01-08T09:29:06.733Z,10.00
2023-01-08T09:31:39.211Z,9.90
2023-01-08T09:36:43.938Z,9.90
2023-01-08T09:39:16.725Z,9.80
2023-01-08T09:41:49.465Z,9.90
2023-01-08T09:44:29.409Z,9.90
2023-01-08T09:49:46.631Z,10.00
2023-01-08T09:52:18.795Z,10.00
2023-01-08T09:54:51.800Z,10.10
2023-01-08T09:57:23.699Z,10.20
2023-01-08T09:59:56.297Z,10.20
2023-01-08T10:02:31.195Z,10.30
2023-01-08T10:05:14.914Z,10.40
2023-01-08T10:10:31.951Z,10.40
2023-01-08T10:15:37.545Z,10.40
2023-01-08T10:18:14.851Z,10.40
2023-01-08T10:20:46.685Z,10.40
2023-01-08T10:23:23.291Z,10.40
2023-01-08T10:26:01.532Z,10.40
2023-01-08T10:28:38.469Z,10.30
2023-01-08T10:31:16.515Z,10.30
2023-01-08T10:33:50.349Z,10.30
2023-01-08T10:36:27.566Z,10.30
2023-01-08T10:39:04.719Z,10.20
2023-01-08T10:41:39.961Z,10.20
2023-01-08T10:44:19.998Z,10.20
2023-01-08T10:46:58.365Z,10.10
2023-01-08T10:49:42.143Z,10.10
2023-01-08T10:52:33.264Z,10.20
2023-01-08T10:55:27.229Z,10.20
2023-01-08T10:58:13.601Z,10.20
2023-01-08T11:00:45.978Z,10.20
2023-01-08T11:03:32.784Z,10.30
2023-01-08T11:06:21.053Z,10.30
2023-01-08T11:08:59.898Z,10.30
2023-01-08T11:11:37.168Z,10.40
2023-01-08T11:14:30.770Z,10.40
2023-01-08T11:17:10.387Z,10.40
2023-01-08T11:19:42.947Z,10.50
2023-01-08T11:22:20.045Z,10.40
2023-01-08T11:24:54.458Z,10.40
2023-01-08T11:27:37.402Z,10.40
2023-01-08T11:30:18.504Z,10.40
2023-01-08T11:32:57.509Z,10.40
2023-01-08T11:36:03.703Z,10.40
2023-01-08T11:38:35.937Z,10.40
2023-01-08T11:41:38.333Z,10.40
2023-01-08T11:44:47.250Z,10.40
2023-01-08T11:47:31.332Z,10.30
2023-01-08T11:50:30.072Z,10.20
2023-01-08T11:53:35.733Z,10.20
2023-01-08T11:56:49.371Z,10.30
2023-01-08T11:59:58.945Z,10.30
2023-01-08T12:02:55.030Z,10.30
2023-01-08T12:05:42.541Z,10.20
2023-01-08T12:09:01.322Z,10.20
2023-01-08T12:11:43.607Z,10.20
2023-01-08T12:14:30.051Z,10.20
2023-01-08T12:17:30.639Z,10.20
2023-01-08T12:20:40.060Z,10.20
2023-01-08T12:23:46.453Z,10.10
2023-01-08T12:26:56.038Z,10.00
2023-01-08T12:30:13.445Z,10.00
2023-01-08T12:32:55.898Z,9.90
2023-01-08T12:35:37.707Z,9.80
2023-01-08T12:38:19.026Z,9.80
2023-01-08T12:41:10.067Z,9.80
2023-01-08T12:43:53.158Z,9.70
2023-01-08T12:46:29.569Z,9.70
2023-01-08T12:49:05.139Z,9.80
2023-01-08T12:52:07.356Z,9.70
2023-01-08T12:55:22.507Z,9.60
2023-01-08T12:58:08.403Z,9.60
2023-01-08T13:01:14.339Z,9.70
2023-01-08T13:03:49.118Z,9.70
2023-01-08T13:08:56.855Z,9.70
2023-01-08T13:11:38.402Z,9.70
2023-01-08T13:14:14.015Z,9.70
2023-01-08T13:16:47.411Z,9.70
2023-01-08T13:19:35.288Z,9.70
2023-01-08T13:22:29.118Z,9.70
2023-01-08T13:25:29.774Z,9.70
2023-01-08T13:28:26.172Z,9.70
2023-01-08T13:31:27.824Z,9.60
2023-01-08T13:34:00.413Z,9.60
2023-01-08T13:36:32.292Z,9.60
2023-01-08T13:39:10.950Z,9.60
2023-01-08T13:41:57.305Z,9.60
2023-01-08T13:44:36.675Z,9.60
2023-01-08T13:47:28.067Z,9.60
2023-01-08T13:50:22.276Z,9.60
2023-01-08T13:53:03.654Z,9.70
2023-01-08T13:55:42.027Z,9.80
2023-01-08T13:58:24.062Z,9.80
2023-01-08T14:00:57.637Z,9.80
2023-01-08T14:03:35.703Z,9.70
2023-01-08T14:06:23.068Z,9.80
2023-01-08T14:09:01.903Z,9.80
2023-01-08T14:11:45.109Z,9.70
2023-01-08T14:14:20.933Z,9.70
2023-01-08T14:16:53.642Z,9.70
2023-01-08T14:19:26.961Z,9.80
2023-01-08T14:22:03.885Z,9.70
2023-01-08T14:24:36.472Z,9.60
2023-01-08T14:27:25.904Z,9.60
2023-01-08T14:29:59.248Z,9.60
2023-01-08T14:35:09.606Z,9.80
2023-01-08T14:40:28.458Z,9.50
2023-01-08T14:43:07.605Z,9.50
2023-01-08T14:45:46.385Z,9.50
2023-01-08T14:48:32.928Z,9.50
2023-01-08T14:51:09.362Z,9.40
2023-01-08T14:53:48.632Z,9.40
2023-01-08T14:56:28.871Z,9.40
2023-01-08T14:59:07.845Z,9.30
2023-01-08T15:01:40.124Z,9.40
2023-01-08T15:04:21.678Z,9.50
2023-01-08T15:07:27.588Z,9.50
2023-01-08T15:10:01.620Z,9.40
2023-01-08T15:12:33.505Z,9.40
2023-01-08T15:15:23.279Z,9.30
2023-01-08T15:17:55.540Z,9.30
2023-01-08T15:20:31.735Z,9.40
2023-01-08T15:25:36.807Z,9.30
2023-01-08T15:28:16.017Z,9.20
2023-01-08T15:30:49.281Z,9.30
2023-01-08T15:33:25.402Z,9.30
2023-01-08T15:35:57.287Z,9.30
2023-01-08T15:38:29.851Z,9.20
2023-01-08T15:43:34.740Z,9.30
2023-01-08T15:46:11.216Z,9.20
2023-01-08T15:51:16.050Z,9.20
2023-01-08T15:56:20.880Z,9.30
2023-01-08T15:58:53.431Z,9.30
2023-01-08T16:01:27.833Z,9.30
2023-01-08T16:04:01.135Z,9.40
2023-01-08T16:09:06.025Z,9.40
2023-01-08T16:11:37.889Z,9.50
2023-01-08T16:14:11.370Z,9.40
2023-01-08T16:16:43.228Z,9.30
2023-01-08T16:19:15.748Z,9.40
2023-01-08T16:24:22.649Z,9.40
2023-01-08T16:29:28.253Z,9.30
2023-01-08T16:32:00.241Z,9.40
2023-01-08T16:34:32.841Z,9.40
2023-01-08T16:37:04.792Z,9.40
2023-01-08T16:42:11.842Z,9.40
2023-01-08T16:44:44.415Z,9.40
2023-01-08T16:47:16.648Z,9.40
2023-01-08T16:52:23.313Z,9.40
2023-01-08T16:57:28.072Z,9.20
2023-01-08T17:00:00.605Z,9.30
2023-01-08T17:02:33.167Z,9.40
2023-01-08T17:05:05.649Z,9.30
2023-01-08T17:07:38.183Z,9.30
2023-01-08T17:10:10.641Z,9.40
2023-01-08T17:12:43.130Z,9.40
2023-01-08T17:15:15.189Z,9.30
2023-01-08T17:20:20.035Z,11.60
2023-01-08T17:22:52.655Z,9.30
2023-01-08T17:25:24.637Z,9.30
2023-01-08T17:27:57.180Z,9.30
2023-01-08T17:30:29.018Z,9.30
2023-01-08T17:33:01.540Z,9.30
2023-01-08T17:35:33.700Z,9.30
2023-01-08T17:38:06.531Z,9.30
2023-01-08T17:43:11.306Z,9.20
2023-01-08T17:45:43.289Z,9.20
2023-01-08T17:48:15.824Z,9.20
2023-01-08T17:53:20.573Z,9.30
2023-01-08T17:55:56.212Z,9.20
2023-01-08T18:06:10.773Z,9.20
2023-01-08T18:08:43.291Z,9.20
2023-01-08T18:11:15.175Z,9.20
2023-01-08T18:13:47.678Z,9.20
2023-01-08T18:16:19.551Z,9.20
2023-01-08T18:18:52.244Z,9.20
2023-01-08T18:21:24.933Z,9.20
2023-01-08T18:23:57.793Z,9.20
2023-01-08T18:26:29.697Z,9.10
2023-01-08T18:29:01.918Z,9.10
2023-01-08T18:31:34.370Z,9.00
2023-01-08T18:34:07.078Z,9.10
2023-01-08T18:36:38.938Z,9.10
2023-01-08T18:39:14.674Z,9.20
2023-01-08T18:42:05.250Z,9.20
2023-01-08T18:44:37.075Z,9.20
2023-01-08T18:47:09.723Z,9.10
2023-01-08T18:49:41.619Z,9.10
2023-01-08T18:57:20.344Z,9.10
2023-01-08T18:59:52.240Z,9.10
2023-01-08T19:02:36.031Z,9.10
2023-01-08T19:07:41.511Z,9.10
2023-01-08T19:10:14.623Z,9.10
2023-01-08T19:15:19.617Z,9.10
2023-01-08T19:17:52.681Z,9.10
2023-01-08T19:20:24.815Z,9.10
2023-01-08T19:23:02.310Z,9.10
2023-01-08T19:28:07.685Z,9.10
2023-01-08T19:30:41.643Z,9.10
2023-01-08T19:33:16.006Z,9.10
2023-01-08T19:35:48.783Z,9.10
2023-01-08T19:38:21.981Z,9.10
2023-01-08T19:40:59.438Z,9.10
2023-01-08T19:46:18.033Z,10.20
2023-01-08T19:48:51.012Z,9.70
2023-01-08T19:53:58.561Z,9.30
2023-01-08T19:56:30.800Z,9.20
2023-01-08T19:59:03.545Z,9.10
2023-01-08T20:01:35.590Z,9.10
2023-01-08T20:04:07.539Z,9.00
2023-01-08T20:11:46.292Z,9.00
2023-01-08T20:14:20.626Z,9.00
2023-01-08T20:16:53.445Z,8.90
2023-01-08T20:19:25.426Z,8.90
2023-01-08T20:21:59.864Z,8.90
2023-01-08T20:24:32.673Z,8.90
2023-01-08T20:27:05.040Z,8.90
2023-01-08T20:29:37.012Z,8.90
2023-01-08T20:32:09.743Z,8.80
2023-01-08T20:34:42.128Z,8.80
2023-01-08T20:37:14.781Z,8.80
2023-01-08T20:39:47.309Z,8.80
2023-01-08T20:42:32.885Z,8.90
2023-01-08T20:45:08.519Z,8.90
2023-01-08T20:47:41.245Z,8.90
2023-01-08T20:52:52.841Z,8.90
2023-01-08T20:57:57.048Z,8.90
2023-01-08T21:05:37.896Z,8.90
2023-01-08T21:08:10.557Z,8.80
2023-01-08T21:10:42.973Z,8.80
2023-01-08T21:13:14.992Z,8.80
2023-01-08T21:15:47.706Z,8.90
2023-01-08T21:21:01.529Z,8.90
2023-01-08T21:23:34.282Z,8.90
2023-01-08T21:26:10.797Z,8.80
2023-01-08T21:28:44.389Z,8.90
2023-01-08T21:31:22.769Z,8.80
2023-01-08T21:33:58.229Z,8.80
2023-01-08T21:36:32.474Z,8.90
2023-01-08T21:39:05.185Z,8.80
2023-01-08T21:41:55.901Z,8.90
2023-01-08T21:44:46.604Z,8.90
2023-01-08T21:47:18.864Z,8.90
2023-01-08T21:49:51.739Z,8.70
2023-01-08T21:52:42.256Z,8.60
2023-01-08T21:55:16.847Z,8.70
2023-01-08T21:57:49.603Z,8.70
2023-01-08T22:00:22.390Z,8.70
2023-01-08T22:02:55.062Z,8.60
2023-01-08T22:05:27.469Z,8.60
2023-01-08T22:08:00.156Z,8.90
2023-01-08T22:10:32.025Z,9.20
2023-01-08T22:13:04.746Z,9.20
2023-01-08T22:15:36.589Z,9.20
2023-01-08T22:18:09.288Z,9.30
2023-01-08T22:20:42.976Z,9.80
2023-01-08T22:30:53.842Z,10.20
2023-01-08T22:33:25.846Z,10.20
2023-01-08T22:38:31.073Z,10.40
2023-01-08T22:41:04.411Z,10.50
2023-01-08T22:43:36.702Z,10.30
2023-01-08T22:46:13.712Z,10.40
2023-01-08T22:48:45.973Z,10.30
2023-01-08T22:51:20.328Z,10.40
2023-01-08T22:53:52.244Z,10.40
2023-01-08T22:56:26.134Z,10.50
2023-01-08T23:01:31.729Z,10.50
2023-01-08T23:04:04.338Z,10.50
2023-01-08T23:06:37.128Z,10.50
2023-01-08T23:09:09.197Z,10.30
2023-01-08T23:11:41.960Z,10.20
2023-01-08T23:14:19.078Z,10.20
2023-01-08T23:16:51.487Z,10.10
2023-01-08T23:21:56.521Z,10.20
2023-01-08T23:24:31.017Z,10.10
2023-01-08T23:27:03.415Z,10.00
2023-01-08T23:29:36.735Z,10.00
2023-01-08T23:32:08.607Z,10.10
2023-01-08T23:34:41.532Z,10.20
2023-01-08T23:37:13.385Z,10.50
2023-01-08T23:47:24.317Z,10.60
2023-01-08T23:55:01.543Z,10.30
2023-01-08T23:57:35.762Z,10.30
